Time;durP1;ratioP1;P1;durP2;ratioP2;P2;SDS_P1;SDS_P2;PMS_P1;PMS_P2;Temp;Humidity;BMP_temperature;BMP_pressure;BME280_temperature;BME280_humidity;BME280_pressure;Samples;Min_cycle;Max_cycle;Signal;HPM_P1;HPM_P2
2021/06/24 00:01:42;;;;;;;2.17;1.50;;;16.20;99.90;;;;;;5055980;28;20198;-91
2021/06/24 00:04:08;;;;;;;1.50;1.40;;;16.10;99.90;;;;;;5050704;28;20236;-91
2021/06/24 00:06:35;;;;;;;1.83;1.52;;;16.10;99.90;;;;;;5037746;28;20205;-93
2021/06/24 00:12:48;;;;;;;1.63;1.45;;;16.20;99.90;;;;;;4996189;28;20211;-93
2021/06/24 00:18:08;;;;;;;2.15;1.58;;;16.10;99.90;;;;;;5025121;28;20190;-92
2021/06/24 00:20:36;;;;;;;3.65;1.73;;;15.90;99.90;;;;;;5037427;28;20198;-92
2021/06/24 00:23:04;;;;;;;2.08;1.48;;;16.00;99.90;;;;;;5037646;28;20203;-92
2021/06/24 00:25:30;;;;;;;4.00;1.63;;;16.00;99.90;;;;;;5040345;28;20214;-92
2021/06/24 00:27:57;;;;;;;3.55;2.00;;;15.90;99.90;;;;;;5039996;28;20596;-92
2021/06/24 00:30:26;;;;;;;3.78;1.90;;;15.90;99.90;;;;;;5041197;28;20210;-92
2021/06/24 00:39:30;;;;;;;2.75;1.80;;;15.90;99.90;;;;;;5037954;28;20241;-93
2021/06/24 00:41:57;;;;;;;3.13;2.10;;;16.00;99.90;;;;;;5040055;28;20597;-92
2021/06/24 00:44:24;;;;;;;3.30;1.85;;;15.90;99.90;;;;;;5039534;28;20230;-93
2021/06/24 00:49:57;;;;;;;2.60;2.10;;;15.90;99.90;;;;;;5048214;28;20353;-93
2021/06/24 00:52:24;;;;;;;2.38;2.00;;;15.80;99.90;;;;;;5050376;28;20224;-93
2021/06/24 00:57:33;;;;;;;4.10;2.92;;;15.70;99.90;;;;;;5015826;28;20252;-93
2021/06/24 01:00:00;;;;;;;3.83;2.60;;;15.70;99.90;;;;;;5042692;28;20250;-93
2021/06/24 01:07:51;;;;;;;4.95;2.80;;;15.70;99.90;;;;;;5027877;28;20579;-92
2021/06/24 01:10:18;;;;;;;4.68;2.45;;;15.60;99.90;;;;;;5043150;28;20658;-93
2021/06/24 01:12:45;;;;;;;3.45;2.40;;;15.60;99.90;;;;;;5036783;28;20194;-93
2021/06/24 01:15:12;;;;;;;2.28;2.03;;;15.60;99.90;;;;;;5031650;28;20211;-93
2021/06/24 01:20:25;;;;;;;3.20;1.92;;;15.60;99.90;;;;;;5026290;28;20236;-94
2021/06/24 01:28:39;;;;;;;3.67;1.90;;;15.60;99.90;;;;;;5011034;28;20226;-93
2021/06/24 01:31:06;;;;;;;3.22;1.70;;;15.60;99.90;;;;;;5038511;28;20202;-93
2021/06/24 01:33:34;;;;;;;2.13;1.70;;;15.60;99.90;;;;;;5038376;28;20222;-93
2021/06/24 01:38:44;;;;;;;1.70;1.60;;;15.50;99.90;;;;;;5020972;28;20227;-93
2021/06/24 01:44:37;;;;;;;2.60;1.55;;;15.40;99.90;;;;;;5022075;28;20214;-94
2021/06/24 01:52:53;;;;;;;1.98;1.88;;;15.20;99.90;;;;;;5025051;28;20215;-93
2021/06/24 01:55:31;;;;;;;2.42;1.67;;;15.20;99.90;;;;;;5039496;28;20216;-93
2021/06/24 02:00:45;;;;;;;3.42;1.73;;;15.10;99.90;;;;;;5029980;28;20245;-93
2021/06/24 02:03:12;;;;;;;2.28;1.73;;;15.10;99.90;;;;;;5026759;28;20234;-93
2021/06/24 02:08:22;;;;;;;2.60;2.38;;;15.10;99.90;;;;;;5021035;28;20256;-94
2021/06/24 02:10:50;;;;;;;5.32;2.60;;;15.00;99.90;;;;;;5043148;28;20202;-94
2021/06/24 02:15:59;;;;;;;2.75;1.90;;;15.00;99.90;;;;;;5021257;28;20205;-93
2021/06/24 02:18:26;;;;;;;3.35;2.08;;;15.00;99.90;;;;;;5038557;28;20237;-93
2021/06/24 02:20:53;;;;;;;2.00;1.80;;;15.10;99.90;;;;;;5038952;28;20222;-94
2021/06/24 02:23:20;;;;;;;1.85;1.73;;;15.10;99.90;;;;;;5033742;28;20314;-93
2021/06/24 02:25:47;;;;;;;1.83;1.52;;;15.00;99.90;;;;;;5030457;28;20549;-94
2021/06/24 02:28:14;;;;;;;1.80;1.70;;;14.90;99.90;;;;;;5039017;28;20290;-93
2021/06/24 02:34:06;;;;;;;2.20;2.00;;;15.10;99.90;;;;;;5022268;28;20226;-94
2021/06/24 02:36:34;;;;;;;2.60;2.20;;;15.00;99.90;;;;;;5038627;28;20577;-93
2021/06/24 02:39:01;;;;;;;2.42;2.10;;;15.00;99.90;;;;;;5045859;28;20697;-93
2021/06/24 02:41:29;;;;;;;2.67;1.90;;;15.00;99.90;;;;;;5038872;28;20646;-93
2021/06/24 02:44:15;;;;;;;2.38;2.10;;;15.00;99.90;;;;;;5034369;28;20577;-93
2021/06/24 02:46:43;;;;;;;4.45;1.63;;;14.90;99.90;;;;;;5038022;28;20293;-93
2021/06/24 02:49:10;;;;;;;2.20;1.50;;;15.10;99.90;;;;;;5049398;28;20305;-93
2021/06/24 02:51:36;;;;;;;2.83;1.83;;;15.10;99.90;;;;;;5037963;28;20190;-93
2021/06/24 02:54:03;;;;;;;2.38;1.75;;;15.10;99.90;;;;;;5037796;28;20240;-93
2021/06/24 02:56:33;;;;;;;1.70;1.50;;;15.20;99.90;;;;;;5038203;28;20203;-93
2021/06/24 02:59:00;;;;;;;2.05;1.60;;;15.20;99.90;;;;;;5042498;28;20238;-93
2021/06/24 03:01:27;;;;;;;1.77;1.65;;;15.10;99.90;;;;;;5038599;28;20216;-94
2021/06/24 03:04:20;;;;;;;1.42;1.33;;;15.10;99.90;;;;;;5038926;28;20292;-92
2021/06/24 03:06:47;;;;;;;1.67;1.40;;;15.10;99.90;;;;;;5050416;28;20244;-93
2021/06/24 03:09:14;;;;;;;3.40;1.40;;;15.10;99.90;;;;;;5041696;28;20236;-92
2021/06/24 03:11:56;;;;;;;1.50;1.40;;;15.10;99.90;;;;;;5038986;28;20546;-93
2021/06/24 03:14:23;;;;;;;1.88;1.45;;;15.00;99.90;;;;;;5020901;28;20677;-93
2021/06/24 03:16:50;;;;;;;2.40;1.60;;;15.10;99.90;;;;;;5046696;28;20559;-92
2021/06/24 03:21:59;;;;;;;2.28;1.40;;;15.20;99.90;;;;;;5021581;28;20198;-93
2021/06/24 03:24:26;;;;;;;2.05;1.45;;;15.30;99.90;;;;;;5038476;28;20313;-94
2021/06/24 03:26:53;;;;;;;3.97;1.48;;;15.30;99.90;;;;;;5042037;28;20576;-92
2021/06/24 03:29:20;;;;;;;1.30;1.20;;;15.20;99.90;;;;;;5040485;28;20305;-93
2021/06/24 03:31:47;;;;;;;2.08;1.42;;;15.10;99.90;;;;;;5050447;28;20195;-94
2021/06/24 03:34:14;;;;;;;2.65;1.52;;;15.10;99.90;;;;;;5032403;28;20257;-94
2021/06/24 03:40:07;;;;;;;1.40;1.30;;;15.10;99.90;;;;;;5021589;28;20346;-93
2021/06/24 03:42:34;;;;;;;4.45;1.50;;;15.10;99.90;;;;;;5041478;28;20207;-93
2021/06/24 03:45:03;;;;;;;4.65;1.50;;;15.10;99.90;;;;;;5040483;28;20203;-93
2021/06/24 03:47:30;;;;;;;1.67;1.58;;;15.00;99.90;;;;;;5041328;28;20289;-94
2021/06/24 03:50:04;;;;;;;2.50;1.63;;;15.00;99.90;;;;;;5039243;28;20222;-93
2021/06/24 03:55:16;;;;;;;1.70;1.50;;;15.00;99.90;;;;;;5024428;28;20210;-92
2021/06/24 03:58:02;;;;;;;2.38;1.55;;;14.90;99.90;;;;;;5040846;28;20245;-94
2021/06/24 04:00:29;;;;;;;1.67;1.58;;;14.80;99.90;;;;;;5042423;28;20230;-94
2021/06/24 04:02:56;;;;;;;2.22;1.50;;;14.80;99.90;;;;;;5037701;28;20646;-94
2021/06/24 04:10:47;;;;;;;3.00;1.55;;;14.90;99.90;;;;;;5040518;28;20569;-92
2021/06/24 04:13:14;;;;;;;1.90;1.60;;;15.00;99.90;;;;;;5037595;28;20230;-94
2021/06/24 04:15:41;;;;;;;3.28;1.70;;;15.00;99.90;;;;;;5046229;28;20592;-94
2021/06/24 04:18:08;;;;;;;1.77;1.50;;;15.00;99.90;;;;;;5037194;28;20309;-93
2021/06/24 04:20:36;;;;;;;2.20;1.80;;;15.00;99.90;;;;;;5038079;28;20225;-94
2021/06/24 04:25:48;;;;;;;2.83;1.70;;;15.00;99.90;;;;;;5035715;28;20206;-94
2021/06/24 04:28:36;;;;;;;2.88;1.50;;;15.10;99.90;;;;;;5013699;28;20293;-95
2021/06/24 04:33:44;;;;;;;2.08;1.80;;;15.20;99.90;;;;;;4999947;28;20234;-92
2021/06/24 04:36:15;;;;;;;2.10;1.48;;;15.40;99.90;;;;;;5025873;28;20202;-93
2021/06/24 04:44:08;;;;;;;2.15;1.95;;;15.60;99.90;;;;;;5046646;28;20222;-94
2021/06/24 04:46:34;;;;;;;2.15;1.85;;;15.60;99.90;;;;;;5029811;28;20227;-90
2021/06/24 04:49:01;;;;;;;12.25;10.02;;;15.50;99.90;;;;;;5034119;28;20237;-91
2021/06/24 04:54:11;;;;;;;3.75;2.72;;;15.70;99.90;;;;;;5039368;28;20229;-92
2021/06/24 04:56:37;;;;;;;2.63;2.35;;;15.80;99.90;;;;;;5021850;28;20211;-92
2021/06/24 04:59:05;;;;;;;2.53;2.00;;;15.70;99.90;;;;;;5017331;28;20341;-92
2021/06/24 05:01:32;;;;;;;2.85;2.20;;;15.70;99.90;;;;;;5021535;28;20227;-93
2021/06/24 05:04:00;;;;;;;10.10;8.20;;;15.70;99.90;;;;;;5034496;28;20245;-91
2021/06/24 05:06:35;;;;;;;4.22;2.80;;;15.70;99.90;;;;;;5035609;28;20194;-93
2021/06/24 05:09:04;;;;;;;3.97;3.22;;;15.80;99.90;;;;;;5029983;28;20226;-92
2021/06/24 05:19:14;;;;;;;6.38;2.00;;;16.70;98.50;;;;;;5020571;28;20254;-93
2021/06/24 05:27:04;;;;;;;3.53;1.83;;;17.30;96.30;;;;;;5000322;28;20278;-91
2021/06/24 05:35:37;;;;;;;1.80;1.70;;;17.40;96.50;;;;;;4936706;28;20245;-91
2021/06/24 06:05:46;;;;;;;4.65;2.00;;;17.70;93.20;;;;;;4976932;28;20231;-94
2021/06/24 06:08:20;;;;;;;2.08;1.80;;;17.70;92.90;;;;;;5040246;28;20600;-93
2021/06/24 06:10:47;;;;;;;2.38;1.88;;;17.80;92.20;;;;;;5034917;28;20195;-92
2021/06/24 06:13:14;;;;;;;2.33;1.83;;;17.90;92.90;;;;;;5045274;28;20222;-92
2021/06/24 06:15:43;;;;;;;4.03;1.70;;;17.90;93.40;;;;;;5048805;28;20292;-92
2021/06/24 06:18:14;;;;;;;4.95;1.70;;;18.00;93.20;;;;;;5046308;28;20226;-93
2021/06/24 06:20:43;;;;;;;3.55;1.80;;;18.10;92.20;;;;;;5043915;28;20222;-90
2021/06/24 06:23:10;;;;;;;2.28;1.80;;;18.00;92.20;;;;;;5038433;28;20222;-93
2021/06/24 06:25:39;;;;;;;1.70;1.60;;;17.80;92.90;;;;;;5039159;28;20205;-93
2021/06/24 06:28:07;;;;;;;3.95;1.70;;;17.70;92.10;;;;;;5050345;28;20288;-94
2021/06/24 06:30:34;;;;;;;2.00;1.83;;;17.70;92.10;;;;;;5043775;28;20220;-94
2021/06/24 06:33:02;;;;;;;2.30;1.92;;;17.60;92.10;;;;;;5041616;28;20309;-92
2021/06/24 06:35:29;;;;;;;1.85;1.52;;;17.70;92.10;;;;;;5043790;28;20256;-93
2021/06/24 06:37:56;;;;;;;2.33;1.95;;;17.70;92.10;;;;;;5039981;28;20270;-93
2021/06/24 06:40:23;;;;;;;2.70;1.80;;;17.70;92.10;;;;;;5043992;28;20600;-93
2021/06/24 06:42:51;;;;;;;2.05;1.85;;;17.70;91.70;;;;;;5042834;28;20205;-93
2021/06/24 06:45:18;;;;;;;1.52;1.42;;;17.80;91.30;;;;;;5047080;28;20649;-93
2021/06/24 06:47:45;;;;;;;1.73;1.63;;;17.90;91.20;;;;;;5043468;28;20689;-93
2021/06/24 06:50:13;;;;;;;2.90;1.50;;;17.90;90.60;;;;;;5028427;28;20195;-92
2021/06/24 06:52:40;;;;;;;2.13;1.65;;;17.90;91.30;;;;;;5037073;28;20206;-92
2021/06/24 06:55:08;;;;;;;2.25;1.80;;;18.00;91.30;;;;;;5026239;28;20272;-93
2021/06/24 06:57:35;;;;;;;2.28;1.70;;;18.20;91.70;;;;;;5010367;28;20657;-93
2021/06/24 07:02:45;;;;;;;2.17;1.90;;;18.60;85.70;;;;;;5027100;28;20207;-92
2021/06/24 07:05:13;;;;;;;2.38;1.70;;;18.90;87.20;;;;;;5022345;28;20200;-93
2021/06/24 07:07:40;;;;;;;2.55;2.08;;;19.20;89.00;;;;;;5019384;28;20199;-90
2021/06/24 07:10:07;;;;;;;2.05;1.83;;;19.80;85.90;;;;;;5023972;28;20226;-91
2021/06/24 07:12:34;;;;;;;3.30;1.80;;;20.40;80.90;;;;;;5023870;28;20805;-91
2021/06/24 07:15:03;;;;;;;4.28;1.90;;;21.10;77.30;;;;;;5029766;28;20225;-90
2021/06/24 07:17:30;;;;;;;2.05;1.85;;;21.70;66.10;;;;;;5032005;28;20214;-88
2021/06/24 07:20:02;;;;;;;1.90;1.70;;;22.00;62.10;;;;;;5030478;28;20218;-90
2021/06/24 07:22:28;;;;;;;2.72;1.80;;;22.50;63.90;;;;;;5020827;28;20597;-88
2021/06/24 07:24:55;;;;;;;1.70;1.60;;;23.40;54.50;;;;;;5029165;28;20703;-88
2021/06/24 07:27:23;;;;;;;2.10;1.90;;;23.80;54.40;;;;;;5020707;28;20203;-89
2021/06/24 07:29:50;;;;;;;3.05;2.17;;;24.20;53.70;;;;;;5020599;28;20239;-88
2021/06/24 07:32:21;;;;;;;2.83;1.90;;;23.70;49.30;;;;;;5029735;28;20205;-89
2021/06/24 07:34:48;;;;;;;3.15;1.90;;;23.10;50.90;;;;;;5023592;28;20251;-90
2021/06/24 07:37:16;;;;;;;2.03;1.83;;;23.00;52.60;;;;;;5032092;28;20561;-90
2021/06/24 07:39:43;;;;;;;3.28;1.80;;;23.00;54.90;;;;;;5025510;28;20226;-88
2021/06/24 07:42:10;;;;;;;4.10;1.90;;;22.90;54.40;;;;;;5023912;28;20227;-88
2021/06/24 07:44:37;;;;;;;3.95;1.83;;;22.60;55.60;;;;;;5028091;28;20230;-89
2021/06/24 07:47:04;;;;;;;1.83;1.70;;;22.60;58.30;;;;;;5030921;28;20272;-88
2021/06/24 07:49:33;;;;;;;2.70;1.80;;;22.50;56.50;;;;;;5027103;28;20231;-90
2021/06/24 07:52:00;;;;;;;4.00;1.90;;;22.30;58.10;;;;;;5030117;28;20206;-89
2021/06/24 07:54:27;;;;;;;2.47;1.88;;;21.90;61.20;;;;;;5031691;28;20234;-91
2021/06/24 07:56:55;;;;;;;4.43;1.98;;;21.90;57.60;;;;;;5037096;28;20213;-89
2021/06/24 07:59:23;;;;;;;1.52;1.42;;;22.00;57.70;;;;;;5030798;28;20290;-89
2021/06/24 08:01:50;;;;;;;2.97;1.90;;;22.00;57.70;;;;;;5030352;28;20227;-90
2021/06/24 08:04:18;;;;;;;2.00;1.80;;;21.80;57.60;;;;;;5027507;28;20222;-89
2021/06/24 08:06:47;;;;;;;2.45;1.80;;;22.30;58.00;;;;;;5022407;28;20203;-89
2021/06/24 08:09:14;;;;;;;2.00;1.77;;;22.90;56.30;;;;;;5023821;28;20688;-88
2021/06/24 08:11:42;;;;;;;3.05;2.10;;;23.70;48.20;;;;;;5018133;28;20213;-87
2021/06/24 08:14:08;;;;;;;2.30;1.95;;;24.10;48.20;;;;;;5025378;28;20244;-87
2021/06/24 08:16:36;;;;;;;2.30;2.00;;;24.50;44.00;;;;;;5025560;28;20202;-86
2021/06/24 08:19:04;;;;;;;2.25;1.90;;;24.40;41.60;;;;;;5026733;28;20230;-85
2021/06/24 08:21:30;;;;;;;2.28;2.00;;;24.20;45.30;;;;;;5018799;28;20214;-87
2021/06/24 08:23:59;;;;;;;1.73;1.63;;;23.30;46.30;;;;;;5023165;28;20218;-87
2021/06/24 08:26:29;;;;;;;1.98;1.88;;;23.20;48.90;;;;;;5024822;28;20572;-87
2021/06/24 08:28:59;;;;;;;2.10;1.90;;;23.50;47.00;;;;;;5026993;28;20326;-89
2021/06/24 08:31:48;;;;;;;2.17;1.95;;;24.90;42.80;;;;;;5025222;28;20204;-92
2021/06/24 08:34:15;;;;;;;2.22;1.77;;;27.50;34.90;;;;;;5011933;28;20249;-92
2021/06/24 08:36:49;;;;;;;2.45;1.88;;;29.50;30.40;;;;;;5024305;28;20203;-91
2021/06/24 08:39:49;;;;;;;3.20;2.97;;;31.80;25.10;;;;;;5019430;28;20227;-91
2021/06/24 08:45:42;;;;;;;4.05;2.40;;;32.80;19.20;;;;;;5010500;28;20296;-93
2021/06/24 08:50:51;;;;;;;2.47;2.28;;;32.40;20.00;;;;;;5030723;28;20202;-92
2021/06/24 08:58:46;;;;;;;2.60;2.42;;;34.00;18.60;;;;;;5036222;28;20292;-91
2021/06/24 09:01:13;;;;;;;2.50;2.30;;;34.60;18.20;;;;;;5019913;28;20221;-91
2021/06/24 09:06:22;;;;;;;3.03;2.92;;;36.10;16.10;;;;;;5034865;28;20233;-92
2021/06/24 09:14:16;;;;;;;3.13;2.83;;;31.80;22.40;;;;;;5031886;28;20751;-92
2021/06/24 09:16:45;;;;;;;3.63;3.10;;;32.80;19.40;;;;;;5030738;28;20195;-93
2021/06/24 09:37:14;;;;;;;2.67;2.47;;;32.30;24.00;;;;;;5216102;22;20267;-90
2021/06/24 09:39:56;;;;;;;3.85;2.88;;;33.40;19.60;;;;;;5047166;28;20221;-91
2021/06/24 09:51:52;;;;;;;3.33;3.10;;;35.20;15.40;;;;;;5052150;28;20197;-92
2021/06/24 09:59:42;;;;;;;5.82;3.55;;;36.10;15.90;;;;;;5040926;28;20209;-91
2021/06/24 10:05:22;;;;;;;3.25;3.05;;;32.50;17.90;;;;;;5022906;28;20699;-91
2021/06/24 10:13:16;;;;;;;3.35;3.00;;;33.60;20.00;;;;;;5060679;28;20217;-91
2021/06/24 10:15:46;;;;;;;3.50;3.03;;;32.80;18.30;;;;;;5050495;28;20193;-91
2021/06/24 10:18:14;;;;;;;3.78;3.50;;;34.00;18.20;;;;;;5054889;28;20237;-91
2021/06/24 10:20:42;;;;;;;3.75;3.45;;;34.20;18.70;;;;;;5056872;28;20208;-91
2021/06/24 10:25:56;;;;;;;3.05;2.80;;;33.00;18.10;;;;;;5056110;28;20216;-91
2021/06/24 10:28:23;;;;;;;3.10;2.90;;;31.90;23.80;;;;;;5054179;28;20743;-91
2021/06/24 10:30:50;;;;;;;5.13;3.33;;;31.50;22.10;;;;;;5053030;28;20198;-92
2021/06/24 10:36:25;;;;;;;3.10;2.72;;;32.70;22.50;;;;;;5054166;28;20232;-91
2021/06/24 10:38:54;;;;;;;3.20;2.67;;;33.20;19.60;;;;;;5055509;28;20221;-91
2021/06/24 10:41:22;;;;;;;3.53;2.65;;;32.90;20.60;;;;;;5048919;28;20221;-91
2021/06/24 10:46:33;;;;;;;4.15;2.75;;;30.10;27.00;;;;;;5044705;28;20210;-92
2021/06/24 10:55:50;;;;;;;2.70;2.50;;;28.70;28.80;;;;;;5040617;28;20258;-91
2021/06/24 10:58:36;;;;;;;2.55;2.35;;;28.20;31.80;;;;;;5035212;28;20226;-91
2021/06/24 11:06:37;;;;;;;2.97;2.10;;;29.50;30.10;;;;;;5061439;28;20201;-90
2021/06/24 11:09:14;;;;;;;2.60;2.40;;;29.20;29.20;;;;;;5054069;28;21000;-90
2021/06/24 11:11:43;;;;;;;4.65;2.45;;;28.10;29.60;;;;;;5046941;28;20565;-91
2021/06/24 11:14:55;;;;;;;2.58;2.35;;;27.10;32.00;;;;;;5004879;28;20201;-90
2021/06/24 11:17:49;;;;;;;2.38;1.88;;;26.30;35.10;;;;;;5051565;28;20248;-89
2021/06/24 11:20:20;;;;;;;3.45;1.92;;;25.80;36.70;;;;;;5042899;28;20217;-87
2021/06/24 11:26:03;;;;;;;2.20;2.00;;;24.50;42.70;;;;;;5051815;28;20216;-92
2021/06/24 11:31:23;;;;;;;2.20;2.00;;;23.40;46.90;;;;;;5035515;28;20198;-90
2021/06/24 11:34:17;;;;;;;2.92;2.10;;;23.00;49.20;;;;;;5050552;28;20237;-92
2021/06/24 11:36:49;;;;;;;5.00;1.70;;;22.90;52.00;;;;;;5045543;28;20559;-91
2021/06/24 11:42:08;;;;;;;2.38;1.83;;;22.90;52.30;;;;;;5050494;28;20217;-91
2021/06/24 11:44:37;;;;;;;2.10;1.90;;;22.60;52.60;;;;;;5057025;28;20221;-91
2021/06/24 11:47:07;;;;;;;3.22;2.00;;;22.60;52.10;;;;;;5046258;28;20202;-91
2021/06/24 12:04:09;;;;;;;3.92;2.72;;;23.50;48.80;;;;;;5050323;28;20236;-91
2021/06/24 12:06:48;;;;;;;1.85;1.73;;;23.20;48.30;;;;;;5053792;28;20198;-90
2021/06/24 12:09:20;;;;;;;3.05;2.00;;;23.20;49.40;;;;;;5050251;28;20252;-92
2021/06/24 12:14:33;;;;;;;4.88;2.20;;;23.50;46.00;;;;;;5051025;28;20222;-92
2021/06/24 12:17:08;;;;;;;2.60;1.90;;;23.40;47.30;;;;;;5050962;28;20568;-91
2021/06/24 12:20:04;;;;;;;2.33;2.13;;;23.70;48.60;;;;;;5040271;28;20278;-92
2021/06/24 12:23:05;;;;;;;2.78;1.90;;;24.10;47.10;;;;;;5055201;28;20221;-90
2021/06/24 12:25:35;;;;;;;2.17;1.95;;;24.70;44.50;;;;;;5054982;28;20228;-88
2021/06/24 12:28:06;;;;;;;3.47;2.22;;;25.10;42.00;;;;;;5050048;28;20194;-88
2021/06/24 12:30:37;;;;;;;2.05;1.85;;;25.30;40.50;;;;;;5048830;28;20602;-88
2021/06/24 12:33:25;;;;;;;2.28;2.08;;;25.30;41.50;;;;;;5048507;28;20629;-90
2021/06/24 12:36:10;;;;;;;2.90;2.20;;;25.00;41.10;;;;;;5050070;28;20580;-90
2021/06/24 12:41:28;;;;;;;2.58;1.80;;;24.70;42.50;;;;;;5044339;28;20206;-89
2021/06/24 12:46:42;;;;;;;2.42;2.22;;;24.70;44.30;;;;;;5054538;28;20901;-91
2021/06/24 12:49:20;;;;;;;3.15;2.20;;;24.60;43.60;;;;;;5058673;28;20594;-94
2021/06/24 12:51:48;;;;;;;2.30;2.10;;;24.80;44.60;;;;;;5063193;28;20186;-92
2021/06/24 12:56:58;;;;;;;2.45;2.22;;;24.80;41.80;;;;;;5031329;28;20198;-90
2021/06/24 13:02:10;;;;;;;3.05;2.33;;;24.90;44.50;;;;;;5042172;28;20229;-91
2021/06/24 13:04:40;;;;;;;3.38;2.38;;;24.80;42.20;;;;;;5036403;28;20244;-90
2021/06/24 13:07:07;;;;;;;3.17;2.20;;;24.90;42.10;;;;;;5048700;28;20202;-91
2021/06/24 13:09:36;;;;;;;2.58;2.33;;;24.80;44.40;;;;;;5044636;28;20233;-91
2021/06/24 13:17:36;;;;;;;3.40;2.35;;;25.10;44.10;;;;;;5058885;28;20201;-91
2021/06/24 13:20:09;;;;;;;2.60;2.33;;;25.20;41.80;;;;;;5056568;28;20223;-90
2021/06/24 13:25:21;;;;;;;2.90;2.60;;;25.00;43.10;;;;;;5041418;28;20252;-91
2021/06/24 13:36:25;;;;;;;6.13;2.90;;;24.30;45.10;;;;;;5049577;28;20244;-90
2021/06/24 13:45:02;;;;;;;2.70;2.50;;;24.10;46.40;;;;;;5062611;28;20572;-93
2021/06/24 13:50:39;;;;;;;3.70;3.00;;;24.60;45.00;;;;;;5042387;28;20209;-90
2021/06/24 13:53:14;;;;;;;3.33;2.97;;;24.60;43.40;;;;;;5051198;28;20235;-90
2021/06/24 13:55:41;;;;;;;2.78;2.58;;;24.50;42.70;;;;;;5053536;28;20186;-90
2021/06/24 13:58:08;;;;;;;3.30;2.38;;;24.30;40.50;;;;;;5058884;28;20229;-91
2021/06/24 14:00:38;;;;;;;4.80;3.15;;;24.60;42.20;;;;;;5057194;28;20194;-90
2021/06/24 14:05:51;;;;;;;3.53;3.15;;;25.30;37.40;;;;;;5051010;28;20316;-91
2021/06/24 14:08:18;;;;;;;2.42;2.20;;;25.60;39.20;;;;;;5051062;28;20225;-91
2021/06/24 14:10:46;;;;;;;2.30;2.10;;;25.80;36.70;;;;;;5051851;28;20198;-89
2021/06/24 14:13:13;;;;;;;2.25;2.00;;;26.10;36.90;;;;;;5050569;28;20232;-89
2021/06/24 14:15:40;;;;;;;1.90;1.80;;;26.20;34.30;;;;;;5045353;28;20198;-88
2021/06/24 14:18:09;;;;;;;2.40;2.20;;;26.10;35.70;;;;;;5054547;28;20290;-88
2021/06/24 14:20:37;;;;;;;2.63;2.30;;;25.90;36.80;;;;;;5044066;28;20205;-90
2021/06/24 14:23:05;;;;;;;2.63;2.20;;;25.60;36.60;;;;;;5046713;28;20230;-89
2021/06/24 14:25:34;;;;;;;5.75;2.00;;;25.30;36.40;;;;;;5048415;28;20213;-89
2021/06/24 14:28:41;;;;;;;4.50;2.67;;;24.90;38.10;;;;;;5029544;28;20210;-94
2021/06/24 14:31:09;;;;;;;2.70;2.10;;;24.70;38.20;;;;;;5056956;28;20209;-91
2021/06/24 14:33:39;;;;;;;2.00;1.80;;;24.40;40.60;;;;;;5048468;28;21079;-91
2021/06/24 14:36:08;;;;;;;2.22;2.03;;;23.90;40.90;;;;;;5049864;28;20273;-90
2021/06/24 14:41:17;;;;;;;2.72;1.88;;;23.40;41.40;;;;;;5048642;28;20261;-91
2021/06/24 14:43:45;;;;;;;2.03;1.80;;;23.10;43.10;;;;;;5046581;28;20252;-91
2021/06/24 14:46:14;;;;;;;2.40;2.20;;;22.90;45.20;;;;;;5047113;28;20559;-92
2021/06/24 14:48:45;;;;;;;3.03;1.70;;;22.70;45.30;;;;;;5051245;28;20221;-90
2021/06/24 14:51:12;;;;;;;3.88;2.35;;;22.60;44.00;;;;;;5050769;28;20248;-90
2021/06/24 14:53:44;;;;;;;2.30;2.10;;;22.50;44.60;;;;;;5050486;28;20286;-91
2021/06/24 14:56:31;;;;;;;3.75;2.15;;;22.50;45.50;;;;;;5058834;28;20555;-91
2021/06/24 14:58:59;;;;;;;3.53;2.03;;;22.40;44.20;;;;;;5051116;28;20234;-91
2021/06/24 15:01:27;;;;;;;4.25;2.20;;;22.40;46.00;;;;;;5049932;28;20859;-89
2021/06/24 15:03:55;;;;;;;3.65;2.00;;;22.40;46.00;;;;;;5048610;28;20660;-91
2021/06/24 15:06:22;;;;;;;2.38;2.17;;;22.30;47.30;;;;;;5052335;28;20210;-90
2021/06/24 15:08:49;;;;;;;2.30;2.10;;;22.30;48.30;;;;;;5050708;28;20221;-91
2021/06/24 15:11:17;;;;;;;3.00;2.30;;;22.20;49.90;;;;;;5052548;28;20645;-91
2021/06/24 15:13:44;;;;;;;4.32;1.83;;;22.30;49.50;;;;;;5032155;28;20337;-90
2021/06/24 15:16:13;;;;;;;4.10;2.10;;;22.20;50.00;;;;;;5042844;28;20198;-91
2021/06/24 15:18:41;;;;;;;2.00;1.90;;;22.30;53.10;;;;;;5042961;28;20229;-92
2021/06/24 15:27:15;;;;;;;3.90;2.10;;;22.00;56.80;;;;;;4985238;28;20263;-92
2021/06/24 15:32:25;;;;;;;2.05;1.95;;;21.90;54.10;;;;;;5033806;28;20569;-93
2021/06/24 15:34:57;;;;;;;2.53;2.30;;;21.90;54.10;;;;;;5032231;28;20617;-93
2021/06/24 15:45:33;;;;;;;4.03;2.45;;;22.10;57.00;;;;;;5021724;28;20285;-93
2021/06/24 15:50:41;;;;;;;4.53;2.47;;;22.30;52.90;;;;;;5028113;28;20198;-93
2021/06/24 15:56:00;;;;;;;2.55;2.35;;;23.10;50.70;;;;;;5021871;28;20712;-93
2021/06/24 15:58:28;;;;;;;3.45;2.40;;;23.40;45.50;;;;;;5009723;28;20701;-93
2021/06/24 16:00:56;;;;;;;5.35;2.33;;;23.70;46.10;;;;;;5029109;28;20815;-93
2021/06/24 16:03:26;;;;;;;2.28;2.10;;;24.00;44.60;;;;;;5023641;28;20313;-93
2021/06/24 16:49:51;;;;;;;2.35;2.15;;;20.70;78.00;;;;;;5024027;28;20199;-91
2021/06/24 16:52:20;;;;;;;2.90;2.58;;;20.60;77.20;;;;;;5054300;28;20202;-91
2021/06/24 17:05:57;;;;;;;2.72;2.53;;;20.50;78.80;;;;;;5055456;28;20225;-90
2021/06/24 17:08:25;;;;;;;3.80;2.50;;;20.60;79.10;;;;;;5059404;28;20293;-92
2021/06/24 17:11:01;;;;;;;3.30;3.00;;;20.60;77.30;;;;;;5052846;28;20194;-90
2021/06/24 17:13:33;;;;;;;3.20;2.80;;;20.50;77.20;;;;;;5048846;28;20222;-93
2021/06/24 17:19:20;;;;;;;5.38;3.33;;;20.60;81.20;;;;;;5067802;28;20229;-94
2021/06/24 18:10:35;;;;;;;3.33;2.30;;;19.30;90.90;;;;;;4917267;29;20268;-93
2021/06/24 18:24:21;;;;;;;6.22;3.20;;;18.40;95.90;;;;;;5010082;28;20230;-92
2021/06/24 18:26:48;;;;;;;6.00;3.00;;;18.50;96.20;;;;;;5010384;28;20591;-92
2021/06/24 18:29:15;;;;;;;6.22;2.90;;;18.30;96.70;;;;;;5022942;28;20277;-91
2021/06/24 18:31:44;;;;;;;5.57;3.00;;;18.20;97.70;;;;;;5025037;28;20209;-91
2021/06/24 18:34:13;;;;;;;4.68;3.28;;;18.00;97.60;;;;;;5032171;28;20226;-91
2021/06/24 18:36:40;;;;;;;5.55;3.35;;;17.90;98.70;;;;;;5034105;28;20229;-94
2021/06/24 18:39:07;;;;;;;4.45;3.00;;;17.90;98.90;;;;;;5048467;28;20223;-94
2021/06/24 18:44:16;;;;;;;5.47;2.97;;;17.90;98.50;;;;;;5029054;28;20241;-93
2021/06/24 18:56:24;;;;;;;4.10;2.92;;;17.60;97.50;;;;;;5036806;28;20226;-92
2021/06/24 19:13:44;;;;;;;4.72;2.60;;;17.30;98.80;;;;;;5026780;28;20313;-86
2021/06/24 19:18:41;;;;;;;5.40;4.90;;;17.10;99.90;;;;;;5001122;28;20243;-93
2021/06/24 19:21:08;;;;;;;5.60;3.20;;;17.10;99.90;;;;;;4999460;28;20199;-91
2021/06/24 19:23:35;;;;;;;4.07;2.55;;;17.20;99.90;;;;;;4998027;28;20258;-92
2021/06/24 19:26:02;;;;;;;2.85;2.40;;;17.20;99.90;;;;;;5000830;28;20290;-91
2021/06/24 19:28:30;;;;;;;3.63;2.40;;;17.20;99.90;;;;;;4997734;28;20227;-94
2021/06/24 19:31:24;;;;;;;4.95;2.50;;;17.10;99.90;;;;;;4999118;28;20203;-92
2021/06/24 19:33:54;;;;;;;3.80;2.65;;;17.00;99.90;;;;;;4986088;28;20591;-93
2021/06/24 19:36:54;;;;;;;4.88;3.03;;;16.90;99.90;;;;;;5003532;28;20200;-90
2021/06/24 19:39:39;;;;;;;4.47;2.85;;;16.90;99.90;;;;;;5000067;28;20231;-91
2021/06/24 19:42:07;;;;;;;7.68;3.00;;;16.80;99.90;;;;;;5001601;28;20207;-90
2021/06/24 19:44:34;;;;;;;3.95;3.65;;;16.80;99.90;;;;;;5001578;28;20231;-90
2021/06/24 19:49:44;;;;;;;4.43;2.90;;;17.00;99.90;;;;;;4980209;28;20243;-91
2021/06/24 19:52:12;;;;;;;4.80;3.20;;;17.00;99.90;;;;;;4997971;28;20206;-91
2021/06/24 19:54:43;;;;;;;4.03;3.00;;;17.00;99.90;;;;;;4987810;28;20607;-91
2021/06/24 19:57:10;;;;;;;4.68;3.60;;;16.90;99.90;;;;;;4981739;28;20211;-92
2021/06/24 19:59:37;;;;;;;14.15;12.65;;;16.90;99.90;;;;;;4981248;28;20573;-91
2021/06/24 20:02:06;;;;;;;14.07;12.15;;;17.00;99.90;;;;;;4981523;28;20216;-92
2021/06/24 20:04:32;;;;;;;15.40;13.52;;;17.20;99.90;;;;;;4972271;28;20240;-91
2021/06/24 20:06:59;;;;;;;7.10;5.18;;;17.20;99.90;;;;;;4966741;28;20225;-91
2021/06/24 20:09:26;;;;;;;14.48;12.82;;;17.10;99.90;;;;;;4983196;28;20311;-91
2021/06/24 20:11:53;;;;;;;5.63;3.88;;;17.10;99.90;;;;;;4981912;28;20201;-90
2021/06/24 20:14:20;;;;;;;4.78;2.78;;;17.20;99.90;;;;;;4980388;28;20224;-91
2021/06/24 20:17:08;;;;;;;4.03;3.15;;;17.10;99.90;;;;;;4970688;28;20208;-90
2021/06/24 20:19:34;;;;;;;6.78;5.93;;;17.20;99.90;;;;;;4968505;28;20735;-90
2021/06/24 20:22:02;;;;;;;3.38;2.63;;;17.20;99.90;;;;;;4962878;28;20197;-91
2021/06/24 20:24:28;;;;;;;7.10;6.40;;;17.10;99.90;;;;;;4979366;28;20698;-90
2021/06/24 20:26:55;;;;;;;6.90;6.30;;;17.20;99.90;;;;;;4975187;28;20201;-92
2021/06/24 20:29:22;;;;;;;4.80;4.40;;;17.20;99.90;;;;;;4985345;28;20232;-91
2021/06/24 20:31:49;;;;;;;3.40;2.58;;;17.30;99.90;;;;;;4980221;28;20249;-90
2021/06/24 20:34:23;;;;;;;5.15;4.13;;;17.20;99.90;;;;;;4977344;28;20228;-92
2021/06/24 20:37:07;;;;;;;6.03;3.90;;;17.20;99.90;;;;;;4966215;28;20200;-91